^^
Datos históricos de la estación: Murcia-Puente Tocinos
Diario Informe para Julio 24, 2019 Unidades:  Ambas    Ingés   Métrico
Diario Semanal Mensual Anual
  Máxima: Mínima: Promedio:
Temperatura: 61.5 °F /  16.4 °C 50.2 °F /  10.1 °C 56.8 °F /  13.8 °C
Punto de rocio: 38.7 °F /  3.7 °C 35.2 °F /  1.8 °C 36.9 °F /  2.7 °C
Humedad: 63% 38.1% 48%
Velocidad viento: 13.5mph /  21.7km/h - 6.7mph /  10.8km/h
Racha viento: 29mph /  46.7km/h - -
Viento- - OSO
Presión: 30 in /  1014.7 hPa 29.8 in /  1008.8 hPa -
Precipitación: 0 in /  0.0 mm    
 
 
Tabla de datos para Julio 24, 2019
Hora Temperatura Punto de rocio Presión Viento Velocidad viento Racha viento Humedad Intensidad lluvia(por hora) Nubes
00:04 57.4 °F /  14.1 °C 36.1 °F /  2.3 °C 29.8in /  1008.8hPa SSO 7.5mph /  12.1km/h 15mph /  24.1km/h 44.9% 0in /  0.0mm
00:09 57.4 °F /  14.1 °C 35.6 °F /  2 °C 29.8in /  1008.9hPa SSO 8.1mph /  13km/h 15mph /  24.1km/h 44% 0in /  0.0mm
00:14 57.4 °F /  14.1 °C 35.6 °F /  2 °C 29.8in /  1008.9hPa SSO 8.4mph /  13.5km/h 15mph /  24.1km/h 44% 0in /  0.0mm
00:19 57.2 °F /  14 °C 36 °F /  2.2 °C 29.8in /  1008.9hPa SSO 8.5mph /  13.7km/h 16.3mph /  26.2km/h 44.8% 0in /  0.0mm
00:24 57.6 °F /  14.2 °C 36.1 °F /  2.3 °C 29.8in /  1009.4hPa SSO 8.6mph /  13.9km/h 18.4mph /  29.6km/h 44.8% 0in /  0.0mm
00:29 57.9 °F /  14.4 °C 36.1 °F /  2.3 °C 29.8in /  1009.4hPa SSO 8.7mph /  14km/h 20.1mph /  32.3km/h 44% 0in /  0.0mm
00:34 58.5 °F /  14.7 °C 36.1 °F /  2.3 °C 29.8in /  1009.4hPa SSO 10.5mph /  16.9km/h 21mph /  33.8km/h 43.4% 0in /  0.0mm
00:39 58.5 °F /  14.7 °C 36 °F /  2.2 °C 29.8in /  1009.5hPa SO 11.4mph /  18.4km/h 21mph /  33.8km/h 43% 0in /  0.0mm
00:44 58.3 °F /  14.6 °C 36 °F /  2.2 °C 29.8in /  1009.5hPa SO 9.1mph /  14.7km/h 13.8mph /  22.2km/h 43% 0in /  0.0mm
00:49 58.3 °F /  14.6 °C 36.1 °F /  2.3 °C 29.8in /  1009.5hPa SO 8.1mph /  13km/h 18.5mph /  29.8km/h 43.6% 0in /  0.0mm
00:54 57.9 °F /  14.4 °C 36.1 °F /  2.3 °C 29.8in /  1009.7hPa SO 8.1mph /  13km/h 19mph /  30.6km/h 44% 0in /  0.0mm
00:59 57.9 °F /  14.4 °C 36.1 °F /  2.3 °C 29.8in /  1009.7hPa SO 8.1mph /  13km/h 18mph /  29km/h 44% 0in /  0.0mm
01:04 57.9 °F /  14.4 °C 36.1 °F /  2.3 °C 29.8in /  1009.7hPa SO 8.5mph /  13.7km/h 18.4mph /  29.6km/h 44% 0in /  0.0mm
01:09 57.7 °F /  14.3 °C 36 °F /  2.2 °C 29.8in /  1009.8hPa OSO 8.7mph /  14km/h 18mph /  29km/h 44% 0in /  0.0mm
01:14 57.7 °F /  14.3 °C 36 °F /  2.2 °C 29.8in /  1009.8hPa OSO 8.7mph /  14km/h 19.6mph /  31.5km/h 44% 0in /  0.0mm
01:19 57.7 °F /  14.3 °C 36 °F /  2.2 °C 29.8in /  1009.8hPa OSO 8.7mph /  14km/h 20mph /  32.2km/h 44% 0in /  0.0mm
01:24 57.7 °F /  14.3 °C 36.1 °F /  2.3 °C 29.8in /  1009.8hPa OSO 9.7mph /  15.6km/h 19mph /  30.6km/h 44.5% 0in /  0.0mm
01:29 57.4 °F /  14.1 °C 36.3 °F /  2.4 °C 29.8in /  1009.8hPa OSO 10.2mph /  16.4km/h 17.3mph /  27.8km/h 45% 0in /  0.0mm
01:34 57.4 °F /  14.1 °C 36.1 °F /  2.3 °C 29.8in /  1009.8hPa OSO 9.2mph /  14.8km/h 17.5mph /  28.2km/h 45% 0in /  0.0mm
01:39 57.2 °F /  14 °C 36 °F /  2.2 °C 29.8in /  1009.8hPa OSO 8.7mph /  14km/h 17.3mph /  27.8km/h 45% 0in /  0.0mm
01:44 57.2 °F /  14 °C 36 °F /  2.2 °C 29.8in /  1009.6hPa OSO 9.6mph /  15.4km/h 17mph /  27.4km/h 45% 0in /  0.0mm
01:49 57 °F /  13.9 °C 36 °F /  2.2 °C 29.8in /  1009.6hPa OSO 10mph /  16.1km/h 16.1mph /  25.9km/h 45% 0in /  0.0mm
01:54 57 °F /  13.9 °C 36 °F /  2.2 °C 29.8in /  1009.6hPa OSO 9.1mph /  14.7km/h 14mph /  22.5km/h 45% 0in /  0.0mm
01:59 56.8 °F /  13.8 °C 35.6 °F /  2 °C 29.8in /  1009.6hPa OSO 8.7mph /  14km/h 13mph /  20.9km/h 45% 0in /  0.0mm
02:04 56.5 °F /  13.6 °C 35.8 °F /  2.1 °C 29.8in /  1009.6hPa OSO 7.5mph /  12km/h 13mph /  20.9km/h 45.7% 0in /  0.0mm
02:09 55.9 °F /  13.3 °C 35.6 °F /  2 °C 29.8in /  1009.7hPa Oeste 6.9mph /  11.1km/h 13mph /  20.9km/h 46.2% 0in /  0.0mm
02:14 55.8 °F /  13.2 °C 35.8 °F /  2.1 °C 29.8in /  1009.7hPa Oeste 6.6mph /  10.6km/h 12mph /  19.3km/h 47% 0in /  0.0mm
02:19 55.4 °F /  13 °C 35.4 °F /  1.9 °C 29.8in /  1009.7hPa Oeste 6.4mph /  10.3km/h 13mph /  20.9km/h 47% 0in /  0.0mm
02:24 55.2 °F /  12.9 °C 35.2 °F /  1.8 °C 29.8in /  1009.8hPa Oeste 6.4mph /  10.3km/h 13mph /  20.9km/h 47% 0in /  0.0mm
02:29 55.2 °F /  12.9 °C 35.2 °F /  1.8 °C 29.8in /  1009.8hPa OSO 6.4mph /  10.3km/h 11mph /  17.7km/h 47% 0in /  0.0mm
02:34 55.2 °F /  12.9 °C 35.2 °F /  1.8 °C 29.8in /  1009.8hPa SSO 6.1mph /  9.8km/h 10mph /  16.1km/h 47% 0in /  0.0mm
02:39 55.2 °F /  12.9 °C 35.6 °F /  2 °C 29.8in /  1009.8hPa SSE 5.9mph /  9.5km/h 8mph /  12.9km/h 47.6% 0in /  0.0mm
02:44 54.1 °F /  12.3 °C 36 °F /  2.2 °C 29.8in /  1009.8hPa SSE 4.8mph /  7.8km/h 8.1mph /  13km/h 50.1% 0in /  0.0mm
02:49 52.9 °F /  11.6 °C 36 °F /  2.2 °C 29.8in /  1009.8hPa SE 4.3mph /  6.9km/h 8.1mph /  13km/h 52.5% 0in /  0.0mm
02:54 52 °F /  11.1 °C 36 °F /  2.2 °C 29.8in /  1009.9hPa SE 4.3mph /  6.9km/h 8.5mph /  13.7km/h 54.5% 0in /  0.0mm
02:59 51.4 °F /  10.8 °C 35.8 °F /  2.1 °C 29.8in /  1009.9hPa SSE 4.3mph /  6.9km/h 9.2mph /  14.8km/h 55% 0in /  0.0mm
03:04 51.4 °F /  10.8 °C 36.1 °F /  2.3 °C 29.8in /  1009.9hPa SE 5mph /  8km/h 10.4mph /  16.7km/h 55.5% 0in /  0.0mm
03:09 51.4 °F /  10.8 °C 36.3 °F /  2.4 °C 29.8in /  1010.1hPa SE 5.2mph /  8.4km/h 10mph /  16.1km/h 56% 0in /  0.0mm
03:14 51.4 °F /  10.8 °C 36.1 °F /  2.3 °C 29.8in /  1010.1hPa SSE 6mph /  9.7km/h 10.4mph /  16.7km/h 55.4% 0in /  0.0mm
03:19 51.6 °F /  10.9 °C 36 °F /  2.2 °C 29.8in /  1010.1hPa SSE 6.4mph /  10.3km/h 10mph /  16.1km/h 55% 0in /  0.0mm
03:24 52 °F /  11.1 °C 36.3 °F /  2.4 °C 29.8in /  1010.1hPa Sur 5.7mph /  9.2km/h 9mph /  14.5km/h 55% 0in /  0.0mm
03:29 52 °F /  11.1 °C 36.3 °F /  2.4 °C 29.8in /  1010.1hPa Sur 5.4mph /  8.7km/h 7mph /  11.3km/h 55% 0in /  0.0mm
03:34 52 °F /  11.1 °C 36.3 °F /  2.4 °C 29.8in /  1010.1hPa SSE 3.7mph /  6km/h 5mph /  8km/h 55% 0in /  0.0mm
03:39 52 °F /  11.1 °C 36.3 °F /  2.4 °C 29.8in /  1010.2hPa SSE 2.9mph /  4.7km/h 5mph /  8km/h 55% 0in /  0.0mm
03:44 51.8 °F /  11 °C 36.3 °F /  2.4 °C 29.8in /  1010.2hPa Sur 3mph /  4.9km/h 5.2mph /  8.4km/h 55.4% 0in /  0.0mm
03:49 51.8 °F /  11 °C 36.3 °F /  2.4 °C 29.8in /  1010.2hPa SO 3.1mph /  5km/h 8.5mph /  13.7km/h 55.3% 0in /  0.0mm
03:54 52.7 °F /  11.5 °C 36 °F /  2.2 °C 29.8in /  1010.2hPa OSO 3.9mph /  6.3km/h 13mph /  20.9km/h 53% 0in /  0.0mm
03:59 54.1 °F /  12.3 °C 36 °F /  2.2 °C 29.8in /  1010.1hPa OSO 4.3mph /  6.9km/h 16.3mph /  26.2km/h 49.9% 0in /  0.0mm
04:04 55.2 °F /  12.9 °C 35.8 °F /  2.1 °C 29.8in /  1010.1hPa OSO 6.6mph /  10.6km/h 17.3mph /  27.8km/h 47.7% 0in /  0.0mm
04:09 55.8 °F /  13.2 °C 35.8 °F /  2.1 °C 29.8in /  1010.1hPa OSO 7.6mph /  12.2km/h 17mph /  27.4km/h 47% 0in /  0.0mm
04:14 55.8 °F /  13.2 °C 35.8 °F /  2.1 °C 29.8in /  1010.0hPa OSO 7.5mph /  12km/h 15.2mph /  24.5km/h 47% 0in /  0.0mm
04:19 55.8 °F /  13.2 °C 35.8 °F /  2.1 °C 29.8in /  1010.0hPa SO 7.4mph /  11.9km/h 15mph /  24.1km/h 47% 0in /  0.0mm
04:24 55.8 °F /  13.2 °C 35.8 °F /  2.1 °C 29.8in /  1010.1hPa OSO 7.1mph /  11.4km/h 17.5mph /  28.2km/h 47% 0in /  0.0mm
04:29 55.8 °F /  13.2 °C 35.2 °F /  1.8 °C 29.8in /  1010.1hPa SO 6.9mph /  11.1km/h 17mph /  27.4km/h 46% 0in /  0.0mm
04:34 55.8 °F /  13.2 °C 35.2 °F /  1.8 °C 29.8in /  1010.1hPa OSO 8mph /  12.9km/h 16.1mph /  25.9km/h 46% 0in /  0.0mm
04:39 55.8 °F /  13.2 °C 35.2 °F /  1.8 °C 29.8in /  1010.2hPa OSO 8.5mph /  13.7km/h 16mph /  25.7km/h 46% 0in /  0.0mm
04:44 55.8 °F /  13.2 °C 35.8 °F /  2.1 °C 29.8in /  1010.2hPa OSO 8.5mph /  13.7km/h 15mph /  24.1km/h 46.8% 0in /  0.0mm
04:49 55.8 °F /  13.2 °C 35.8 °F /  2.1 °C 29.8in /  1010.2hPa OSO 8.5mph /  13.7km/h 14mph /  22.5km/h 47% 0in /  0.0mm
04:54 55.6 °F /  13.1 °C 35.8 °F /  2.1 °C 29.8in /  1010.5hPa OSO 7.9mph /  12.7km/h 14mph /  22.5km/h 47% 0in /  0.0mm
04:59 55.4 °F /  13 °C 35.4 °F /  1.9 °C 29.8in /  1010.5hPa SO 7.6mph /  12.2km/h 16.1mph /  25.9km/h 47% 0in /  0.0mm
05:04 55.2 °F /  12.9 °C 35.8 °F /  2.1 °C 29.8in /  1010.5hPa OSO 8mph /  12.8km/h 16.1mph /  25.9km/h 47.7% 0in /  0.0mm
05:09 55 °F /  12.8 °C 35.8 °F /  2.1 °C 29.8in /  1010.7hPa OSO 8.1mph /  13km/h 14mph /  22.5km/h 48% 0in /  0.0mm
05:14 55 °F /  12.8 °C 35.8 °F /  2.1 °C 29.8in /  1010.7hPa Sur 6.6mph /  10.6km/h 9mph /  14.5km/h 48.4% 0in /  0.0mm
05:19 54 °F /  12.2 °C 35.8 °F /  2.1 °C 29.8in /  1010.7hPa Sur 5.9mph /  9.5km/h 8mph /  12.9km/h 50.2% 0in /  0.0mm
05:24 52.9 °F /  11.6 °C 36 °F /  2.2 °C 29.8in /  1010.7hPa Sur 5.1mph /  8.2km/h 7mph /  11.3km/h 52.3% 0in /  0.0mm
05:29 52.3 °F /  11.3 °C 35.8 °F /  2.1 °C 29.8in /  1010.7hPa Sur 4.7mph /  7.6km/h 7mph /  11.3km/h 53.2% 0in /  0.0mm
05:34 52.3 °F /  11.3 °C 36.1 °F /  2.3 °C 29.8in /  1010.7hPa Sur 4.4mph /  7.1km/h 7.6mph /  12.2km/h 54% 0in /  0.0mm
05:39 52.3 °F /  11.3 °C 35.8 °F /  2.1 °C 29.9in /  1010.9hPa Sur 4.3mph /  6.9km/h 8.1mph /  13km/h 53% 0in /  0.0mm
05:44 52.9 °F /  11.6 °C 36 °F /  2.2 °C 29.9in /  1010.9hPa Sur 4.6mph /  7.4km/h 8.5mph /  13.7km/h 52.5% 0in /  0.0mm
05:49 53.2 °F /  11.8 °C 36 °F /  2.2 °C 29.9in /  1010.9hPa Sur 4.7mph /  7.6km/h 9mph /  14.5km/h 52% 0in /  0.0mm
05:54 53.2 °F /  11.8 °C 36.1 °F /  2.3 °C 29.9in /  1011.2hPa Sur 5mph /  8.1km/h 9.2mph /  14.8km/h 51.9% 0in /  0.0mm
05:59 53.6 °F /  12 °C 35.8 °F /  2.1 °C 29.9in /  1011.2hPa SO 5.2mph /  8.4km/h 9mph /  14.5km/h 51% 0in /  0.0mm
06:04 53.8 °F /  12.1 °C 36.1 °F /  2.3 °C 29.9in /  1011.2hPa SSO 4.8mph /  7.8km/h 10.4mph /  16.7km/h 51% 0in /  0.0mm
06:09 53.8 °F /  12.1 °C 36.1 °F /  2.3 °C 29.9in /  1011.3hPa SO 4.7mph /  7.6km/h 10mph /  16.1km/h 51% 0in /  0.0mm
06:14 53.8 °F /  12.1 °C 36.1 °F /  2.3 °C 29.9in /  1011.3hPa OSO 4.4mph /  7.1km/h 9mph /  14.5km/h 51% 0in /  0.0mm
06:19 53.8 °F /  12.1 °C 36.1 °F /  2.3 °C 29.9in /  1011.3hPa OSO 4.3mph /  6.9km/h 11.5mph /  18.5km/h 51% 0in /  0.0mm
06:24 53.8 °F /  12.1 °C 36.3 °F /  2.4 °C 29.9in /  1011.3hPa SO 4.6mph /  7.4km/h 12mph /  19.3km/h 51.4% 0in /  0.0mm
06:29 53.6 °F /  12 °C 36.3 °F /  2.4 °C 29.9in /  1011.2hPa OSO 4.7mph /  7.6km/h 8.5mph /  13.7km/h 52% 0in /  0.0mm
06:34 53.4 °F /  11.9 °C 36.1 °F /  2.3 °C 29.9in /  1011.2hPa OSO 4.7mph /  7.6km/h 9mph /  14.5km/h 52% 0in /  0.0mm
06:39 53.2 °F /  11.8 °C 36.3 °F /  2.4 °C 29.9in /  1011.4hPa OSO 4.7mph /  7.6km/h 7.4mph /  11.9km/h 52.6% 0in /  0.0mm
06:44 53.1 °F /  11.7 °C 36.5 °F /  2.5 °C 29.9in /  1011.4hPa Oeste 4.4mph /  7.1km/h 8.1mph /  13km/h 53% 0in /  0.0mm
06:49 53.2 °F /  11.8 °C 36.5 °F /  2.5 °C 29.9in /  1011.4hPa OSO 4.3mph /  6.9km/h 8mph /  12.9km/h 53% 0in /  0.0mm
06:54 53.2 °F /  11.8 °C 36.5 °F /  2.5 °C 29.9in /  1011.4hPa OSO 4.6mph /  7.4km/h 8.1mph /  13km/h 53% 0in /  0.0mm
06:59 53.2 °F /  11.8 °C 36.5 °F /  2.5 °C 29.9in /  1011.4hPa Oeste 4.7mph /  7.6km/h 8.1mph /  13km/h 53% 0in /  0.0mm
07:04 53.2 °F /  11.8 °C 36.5 °F /  2.5 °C 29.9in /  1011.4hPa Oeste 4.2mph /  6.8km/h 7mph /  11.3km/h 53% 0in /  0.0mm
07:09 53.1 °F /  11.7 °C 36.5 °F /  2.5 °C 29.9in /  1011.5hPa Oeste 4mph /  6.5km/h 4mph /  6.4km/h 53% 0in /  0.0mm
07:14 53.1 °F /  11.7 °C 36.5 °F /  2.5 °C 29.9in /  1011.5hPa Oeste 2.2mph /  3.6km/h 7.6mph /  12.2km/h 53.4% 0in /  0.0mm
07:19 52.9 °F /  11.6 °C 36.7 °F /  2.6 °C 29.9in /  1011.5hPa ONO 1.4mph /  2.2km/h 8.1mph /  13km/h 53.9% 0in /  0.0mm
07:24 53.1 °F /  11.7 °C 36.5 °F /  2.5 °C 29.9in /  1011.7hPa SSO 2.5mph /  4.1km/h 7mph /  11.3km/h 53.3% 0in /  0.0mm
07:29 53.2 °F /  11.8 °C 36.5 °F /  2.5 °C 29.9in /  1011.7hPa SE 3.1mph /  5km/h 6.2mph /  10km/h 53% 0in /  0.0mm
07:34 53.2 °F /  11.8 °C 36.5 °F /  2.5 °C 29.9in /  1011.7hPa ESE 3.1mph /  5km/h 6mph /  9.7km/h 53.2% 0in /  0.0mm
07:39 53.2 °F /  11.8 °C 36.7 °F /  2.6 °C 29.9in /  1012.1hPa NE 3.1mph /  5km/h 12.7mph /  20.4km/h 53.5% 0in /  0.0mm
07:44 54 °F /  12.2 °C 36.9 °F /  2.7 °C 29.9in /  1012.1hPa ONO 4.7mph /  7.5km/h 13mph /  20.9km/h 52.1% 0in /  0.0mm
07:49 54.1 °F /  12.3 °C 36.9 °F /  2.7 °C 29.9in /  1012.1hPa NE 5.4mph /  8.7km/h 12.7mph /  20.4km/h 52% 0in /  0.0mm
07:54 54.3 °F /  12.4 °C 37 °F /  2.8 °C 29.9in /  1012.3hPa North 5.3mph /  8.5km/h 13mph /  20.9km/h 52% 0in /  0.0mm
07:59 54.7 °F /  12.6 °C 37.4 °F /  3 °C 29.9in /  1012.3hPa Oeste 5.2mph /  8.4km/h 13.8mph /  22.2km/h 52% 0in /  0.0mm
08:04 54.1 °F /  12.3 °C 37.2 °F /  2.9 °C 29.9in /  1012.3hPa ONO 5.7mph /  9.2km/h 14mph /  22.5km/h 52.8% 0in /  0.0mm
08:09 53.4 °F /  11.9 °C 37.2 °F /  2.9 °C 29.9in /  1012.5hPa ONO 5.9mph /  9.5km/h 13mph /  20.9km/h 54% 0in /  0.0mm
08:14 54 °F /  12.2 °C 37.2 °F /  2.9 °C 29.9in /  1012.5hPa ONO 5.9mph /  9.5km/h 13mph /  20.9km/h 53.2% 0in /  0.0mm
08:19 54 °F /  12.2 °C 37.2 °F /  2.9 °C 29.9in /  1012.5hPa NO 5.9mph /  9.5km/h 13mph /  20.9km/h 53% 0in /  0.0mm
08:24 54 °F /  12.2 °C 37.4 °F /  3 °C 29.9in /  1012.7hPa NO 6.2mph /  10km/h 10.7mph /  17.2km/h 53.4% 0in /  0.0mm
08:29 53.8 °F /  12.1 °C 37.6 °F /  3.1 °C 29.9in /  1012.7hPa NO 6.4mph /  10.3km/h 11mph /  17.7km/h 54% 0in /  0.0mm
08:34 53.8 °F /  12.1 °C 37.8 °F /  3.2 °C 29.9in /  1012.7hPa NO 6.1mph /  9.8km/h 10.4mph /  16.7km/h 54.5% 0in /  0.0mm
08:39 54 °F /  12.2 °C 37.8 °F /  3.2 °C 29.9in /  1012.8hPa NNO 5.9mph /  9.5km/h 10mph /  16.1km/h 54.1% 0in /  0.0mm
08:44 54.3 °F /  12.4 °C 37.8 °F /  3.2 °C 29.9in /  1012.8hPa NNO 4.8mph /  7.7km/h 9mph /  14.5km/h 53.3% 0in /  0.0mm
08:49 55 °F /  12.8 °C 37.8 °F /  3.2 °C 29.9in /  1012.8hPa NNE 4.3mph /  6.9km/h 8.5mph /  13.7km/h 52.1% 0in /  0.0mm
08:54 55.4 °F /  13 °C 37.6 °F /  3.1 °C 29.9in /  1013.0hPa SSO 4.6mph /  7.4km/h 9mph /  14.5km/h 51.1% 0in /  0.0mm
08:59 55.6 °F /  13.1 °C 37.6 °F /  3.1 °C 29.9in /  1013.0hPa SO 4.7mph /  7.6km/h 7mph /  11.3km/h 51% 0in /  0.0mm
09:04 55.6 °F /  13.1 °C 37.6 °F /  3.1 °C 29.9in /  1013.0hPa NO 4.2mph /  6.8km/h 6mph /  9.7km/h 51% 0in /  0.0mm
09:09 55.9 °F /  13.3 °C 37.6 °F /  3.1 °C 29.9in /  1013.0hPa SE 4mph /  6.5km/h 7.4mph /  11.9km/h 50.2% 0in /  0.0mm
09:14 56.1 °F /  13.4 °C 37.8 °F /  3.2 °C 29.9in /  1013.0hPa SSO 4.5mph /  7.2km/h 10.4mph /  16.7km/h 50% 0in /  0.0mm
09:19 56.1 °F /  13.4 °C 37.9 °F /  3.3 °C 29.9in /  1013.0hPa NO 4.7mph /  7.6km/h 10mph /  16.1km/h 50.4% 0in /  0.0mm
09:24 55.9 °F /  13.3 °C 38.1 °F /  3.4 °C 29.9in /  1013.1hPa NE 4.2mph /  6.8km/h 9.2mph /  14.8km/h 50.9% 0in /  0.0mm
09:29 56.3 °F /  13.5 °C 37.8 °F /  3.2 °C 29.9in /  1013.1hPa Sur 4mph /  6.5km/h 12.7mph /  20.4km/h 49.9% 0in /  0.0mm
09:34 56.7 °F /  13.7 °C 37.8 °F /  3.2 °C 29.9in /  1013.1hPa Sur 4.8mph /  7.8km/h 13mph /  20.9km/h 49% 0in /  0.0mm
09:39 56.8 °F /  13.8 °C 37.9 °F /  3.3 °C 29.9in /  1013.3hPa SSO 5.2mph /  8.4km/h 10mph /  16.1km/h 49% 0in /  0.0mm
09:44 56.8 °F /  13.8 °C 37.9 °F /  3.3 °C 29.9in /  1013.3hPa SSO 5.7mph /  9.1km/h 12.7mph /  20.4km/h 49% 0in /  0.0mm
09:49 57 °F /  13.9 °C 37.6 °F /  3.1 °C 29.9in /  1013.3hPa SO 5.9mph /  9.5km/h 13mph /  20.9km/h 48.1% 0in /  0.0mm
09:54 57.2 °F /  14 °C 37.8 °F /  3.2 °C 29.9in /  1013.3hPa SSO 6.6mph /  10.6km/h 13mph /  20.9km/h 48.2% 0in /  0.0mm
09:59 57.4 °F /  14.1 °C 37.4 °F /  3 °C 29.9in /  1013.3hPa SO 6.9mph /  11.1km/h 10.7mph /  17.2km/h 47.3% 0in /  0.0mm
10:04 57.6 °F /  14.2 °C 37.6 °F /  3.1 °C 29.9in /  1013.3hPa SO 5.7mph /  9.2km/h 15.6mph /  25.1km/h 47.3% 0in /  0.0mm
10:09 57.7 °F /  14.3 °C 37.6 °F /  3.1 °C 29.9in /  1013.4hPa SSO 5.2mph /  8.4km/h 16.1mph /  25.9km/h 47% 0in /  0.0mm
10:14 57.9 °F /  14.4 °C 37.8 °F /  3.2 °C 29.9in /  1013.4hPa OSO 6.8mph /  11km/h 14mph /  22.5km/h 47% 0in /  0.0mm
10:19 58.3 °F /  14.6 °C 37.9 °F /  3.3 °C 29.9in /  1013.4hPa OSO 7.6mph /  12.2km/h 18.1mph /  29.1km/h 46.5% 0in /  0.0mm
10:24 58.3 °F /  14.6 °C 37.6 °F /  3.1 °C 29.9in /  1013.7hPa OSO 8mph /  12.8km/h 18.4mph /  29.6km/h 46.1% 0in /  0.0mm
10:29 58.5 °F /  14.7 °C 38.1 °F /  3.4 °C 29.9in /  1013.7hPa OSO 8.1mph /  13km/h 19.7mph /  31.7km/h 46.7% 0in /  0.0mm
10:34 58.6 °F /  14.8 °C 37.9 °F /  3.3 °C 29.9in /  1013.7hPa Oeste 8.8mph /  14.2km/h 20mph /  32.2km/h 46% 0in /  0.0mm
10:39 58.6 °F /  14.8 °C 37.9 °F /  3.3 °C 29.9in /  1013.9hPa Oeste 9.2mph /  14.8km/h 22.3mph /  35.9km/h 46% 0in /  0.0mm
10:44 58.8 °F /  14.9 °C 38.1 °F /  3.4 °C 29.9in /  1013.9hPa Oeste 9.8mph /  15.7km/h 22mph /  35.4km/h 46% 0in /  0.0mm
10:49 58.8 °F /  14.9 °C 37.8 °F /  3.2 °C 29.9in /  1013.9hPa Oeste 10mph /  16.1km/h 19.6mph /  31.5km/h 45.5% 0in /  0.0mm
10:54 58.8 °F /  14.9 °C 37.9 °F /  3.3 °C 29.9in /  1014.1hPa OSO 10.8mph /  17.4km/h 20mph /  32.2km/h 45.8% 0in /  0.0mm
10:59 58.6 °F /  14.8 °C 37.9 °F /  3.3 °C 29.9in /  1014.1hPa Oeste 11.2mph /  18km/h 20.8mph /  33.5km/h 46% 0in /  0.0mm
11:04 58.6 °F /  14.8 °C 37.4 °F /  3 °C 29.9in /  1014.1hPa Oeste 11.2mph /  18km/h 21.9mph /  35.2km/h 45.2% 0in /  0.0mm
11:09 58.6 °F /  14.8 °C 37.8 °F /  3.2 °C 29.9in /  1014.1hPa Oeste 11.2mph /  18km/h 22mph /  35.4km/h 45.6% 0in /  0.0mm
11:14 58.8 °F /  14.9 °C 38.1 °F /  3.4 °C 29.9in /  1014.0hPa Oeste 11.6mph /  18.7km/h 21mph /  33.8km/h 45.8% 0in /  0.0mm
11:19 59.2 °F /  15.1 °C 37.8 °F /  3.2 °C 29.9in /  1014.0hPa ONO 11.8mph /  19km/h 20.7mph /  33.3km/h 45% 0in /  0.0mm
11:24 59.4 °F /  15.2 °C 37.9 °F /  3.3 °C 29.9in /  1014.0hPa ONO 11.6mph /  18.6km/h 21mph /  33.8km/h 45% 0in /  0.0mm
11:29 59.4 °F /  15.2 °C 37.9 °F /  3.3 °C 29.9in /  1014.0hPa ONO 11.4mph /  18.4km/h 23.5mph /  37.8km/h 45% 0in /  0.0mm
11:34 59.2 °F /  15.1 °C 37.9 °F /  3.3 °C 29.9in /  1014.0hPa ONO 12.1mph /  19.4km/h 24.6mph /  39.6km/h 45.2% 0in /  0.0mm
11:39 59.2 °F /  15.1 °C 37.8 °F /  3.2 °C 29.9in /  1014.0hPa ONO 12.3mph /  19.8km/h 25mph /  40.2km/h 45% 0in /  0.0mm
11:44 59.2 °F /  15.1 °C 38.3 °F /  3.5 °C 29.9in /  1013.8hPa ONO 12.3mph /  19.8km/h 21mph /  33.8km/h 46% 0in /  0.0mm
11:49 59.2 °F /  15.1 °C 38.3 °F /  3.5 °C 29.9in /  1013.8hPa Oeste 12.3mph /  19.8km/h 17.5mph /  28.2km/h 45.8% 0in /  0.0mm
11:54 59.4 °F /  15.2 °C 38.3 °F /  3.5 °C 29.9in /  1014.0hPa ONO 9.8mph /  15.8km/h 19.7mph /  31.7km/h 45.6% 0in /  0.0mm
11:59 59.2 °F /  15.1 °C 38.1 °F /  3.4 °C 29.9in /  1014.0hPa ONO 8.7mph /  14km/h 20mph /  32.2km/h 45.6% 0in /  0.0mm
12:04 59.2 °F /  15.1 °C 38.1 °F /  3.4 °C 29.9in /  1014.0hPa Oeste 9.6mph /  15.5km/h 18mph /  29km/h 45.5% 0in /  0.0mm
12:09 59 °F /  15 °C 37.8 °F /  3.2 °C 29.9in /  1014.0hPa Oeste 10mph /  16.1km/h 21.9mph /  35.2km/h 45.1% 0in /  0.0mm
12:14 59 °F /  15 °C 38.1 °F /  3.4 °C 29.9in /  1013.7hPa OSO 9.8mph /  15.8km/h 22mph /  35.4km/h 45.8% 0in /  0.0mm
12:19 59.2 °F /  15.1 °C 37.9 °F /  3.3 °C 29.9in /  1013.7hPa Oeste 9.7mph /  15.6km/h 20.7mph /  33.3km/h 45.3% 0in /  0.0mm
12:24 59 °F /  15 °C 37.8 °F /  3.2 °C 29.9in /  1013.7hPa OSO 9mph /  14.5km/h 21mph /  33.8km/h 45% 0in /  0.0mm
12:29 58.8 °F /  14.9 °C 37.6 °F /  3.1 °C 29.9in /  1013.4hPa Oeste 8.7mph /  14km/h 20.8mph /  33.5km/h 45% 0in /  0.0mm
12:34 59 °F /  15 °C 37.6 °F /  3.1 °C 29.9in /  1013.4hPa Oeste 11.2mph /  18km/h 23.5mph /  37.8km/h 45% 0in /  0.0mm
12:39 59.4 °F /  15.2 °C 37.9 °F /  3.3 °C 29.9in /  1013.4hPa Oeste 12.3mph /  19.8km/h 23mph /  37km/h 45% 0in /  0.0mm
12:44 59.5 °F /  15.3 °C 37.8 °F /  3.2 °C 29.9in /  1012.8hPa ONO 11.6mph /  18.6km/h 23.5mph /  37.8km/h 44.2% 0in /  0.0mm
12:49 59.7 °F /  15.4 °C 37.8 °F /  3.2 °C 29.9in /  1012.8hPa Oeste 11.2mph /  18km/h 23mph /  37km/h 44% 0in /  0.0mm
12:54 59.9 °F /  15.5 °C 37.6 °F /  3.1 °C 29.9in /  1012.8hPa Oeste 12.8mph /  20.6km/h 22mph /  35.4km/h 43.6% 0in /  0.0mm
12:59 60.1 °F /  15.6 °C 37.6 °F /  3.1 °C 29.9in /  1012.4hPa Oeste 13.5mph /  21.7km/h 23mph /  37km/h 43.2% 0in /  0.0mm
13:04 60.3 °F /  15.7 °C 37.6 °F /  3.1 °C 29.9in /  1012.4hPa Oeste 12.3mph /  19.8km/h 25.3mph /  40.7km/h 43% 0in /  0.0mm
13:09 60.3 °F /  15.7 °C 37.8 °F /  3.2 °C 29.9in /  1012.7hPa Oeste 11.8mph /  19km/h 25mph /  40.2km/h 43% 0in /  0.0mm
13:14 60.3 °F /  15.7 °C 37.8 °F /  3.2 °C 29.9in /  1012.7hPa Oeste 12.1mph /  19.5km/h 20mph /  32.2km/h 43% 0in /  0.0mm
13:19 60.4 °F /  15.8 °C 37.6 °F /  3.1 °C 29.9in /  1012.7hPa Oeste 12.3mph /  19.8km/h 20mph /  32.2km/h 42.5% 0in /  0.0mm
13:24 60.6 °F /  15.9 °C 37.6 °F /  3.1 °C 29.9in /  1012.7hPa Oeste 10.6mph /  17km/h 18.4mph /  29.6km/h 42.3% 0in /  0.0mm
13:29 60.6 °F /  15.9 °C 37.6 °F /  3.1 °C 29.9in /  1012.5hPa Oeste 9.7mph /  15.6km/h 19mph /  30.6km/h 42.4% 0in /  0.0mm
13:34 61 °F /  16.1 °C 37.9 °F /  3.3 °C 29.9in /  1012.5hPa Oeste 9.9mph /  15.9km/h 19mph /  30.6km/h 42.3% 0in /  0.0mm
13:39 61.3 °F /  16.3 °C 37.8 °F /  3.2 °C 29.9in /  1012.5hPa Oeste 10mph /  16.1km/h 18.1mph /  29.1km/h 41.5% 0in /  0.0mm
13:44 61.3 °F /  16.3 °C 37.4 °F /  3 °C 29.9in /  1012.4hPa Oeste 9mph /  14.5km/h 25.3mph /  40.7km/h 41% 0in /  0.0mm
13:49 61.2 °F /  16.2 °C 37.4 °F /  3 °C 29.9in /  1012.4hPa Oeste 8.5mph /  13.7km/h 28.8mph /  46.3km/h 41% 0in /  0.0mm
13:54 61.2 °F /  16.2 °C 37.2 °F /  2.9 °C 29.9in /  1012.4hPa ONO 10.4mph /  16.8km/h 29mph /  46.7km/h 41% 0in /  0.0mm
13:59 61.3 °F /  16.3 °C 37.6 °F /  3.1 °C 29.9in /  1012.2hPa Oeste 11.4mph /  18.4km/h 21.3mph /  34.3km/h 41.2% 0in /  0.0mm
14:04 61.3 °F /  16.3 °C 37.2 °F /  2.9 °C 29.9in /  1012.2hPa Oeste 12.1mph /  19.4km/h 21.5mph /  34.6km/h 40.6% 0in /  0.0mm
14:09 61.2 °F /  16.2 °C 37.4 °F /  3 °C 29.9in /  1012.3hPa Oeste 12.3mph /  19.8km/h 22mph /  35.4km/h 41% 0in /  0.0mm
14:14 61.2 °F /  16.2 °C 37.2 °F /  2.9 °C 29.9in /  1012.3hPa Oeste 12.4mph /  20km/h 22mph /  35.4km/h 41% 0in /  0.0mm
14:19 61.2 °F /  16.2 °C 37.6 °F /  3.1 °C 29.9in /  1012.3hPa ONO 12.5mph /  20.1km/h 21mph /  33.8km/h 41.4% 0in /  0.0mm
14:24 61.3 °F /  16.3 °C 37.4 °F /  3 °C 29.9in /  1012.3hPa Oeste 11.6mph /  18.7km/h 18.1mph /  29.1km/h 40.9% 0in /  0.0mm
14:29 61.3 °F /  16.3 °C 37.2 °F /  2.9 °C 29.9in /  1012.2hPa Oeste 11.2mph /  18km/h 18.4mph /  29.6km/h 40.8% 0in /  0.0mm
14:34 61.3 °F /  16.3 °C 37.4 °F /  3 °C 29.9in /  1012.2hPa Oeste 10.4mph /  16.7km/h 18.4mph /  29.6km/h 40.9% 0in /  0.0mm
14:39 61.5 °F /  16.4 °C 37 °F /  2.8 °C 29.9in /  1012.2hPa Oeste 10mph /  16.1km/h 18mph /  29km/h 40% 0in /  0.0mm
14:44 61.3 °F /  16.3 °C 36.7 °F /  2.6 °C 29.9in /  1012.2hPa Oeste 8.3mph /  13.3km/h 17.5mph /  28.2km/h 39.8% 0in /  0.0mm
14:49 61.3 °F /  16.3 °C 36.7 °F /  2.6 °C 29.9in /  1012.2hPa OSO 7.4mph /  11.9km/h 17.3mph /  27.8km/h 39.9% 0in /  0.0mm
14:54 61.3 °F /  16.3 °C 36.9 °F /  2.7 °C 29.9in /  1012.3hPa OSO 7.5mph /  12.1km/h 13.5mph /  21.7km/h 40% 0in /  0.0mm
14:59 61.3 °F /  16.3 °C 36.7 °F /  2.6 °C 29.9in /  1012.3hPa SO 7.6mph /  12.2km/h 16.3mph /  26.2km/h 39.7% 0in /  0.0mm
15:04 61.3 °F /  16.3 °C 36.9 °F /  2.7 °C 29.9in /  1012.3hPa SO 9.1mph /  14.7km/h 17.3mph /  27.8km/h 40% 0in /  0.0mm
15:09 61.3 °F /  16.3 °C 36.9 °F /  2.7 °C 29.9in /  1012.3hPa OSO 9.7mph /  15.6km/h 17mph /  27.4km/h 40.1% 0in /  0.0mm
15:14 61.2 °F /  16.2 °C 36.7 °F /  2.6 °C 29.9in /  1012.3hPa OSO 8.6mph /  13.9km/h 14.5mph /  23.3km/h 40.1% 0in /  0.0mm
15:19 61.2 °F /  16.2 °C 36.7 °F /  2.6 °C 29.9in /  1012.3hPa OSO 8.1mph /  13km/h 15.2mph /  24.5km/h 40% 0in /  0.0mm
15:24 61.2 °F /  16.2 °C 36.7 °F /  2.6 °C 29.9in /  1012.6hPa OSO 7.8mph /  12.5km/h 15.6mph /  25.1km/h 40.2% 0in /  0.0mm
15:29 61.2 °F /  16.2 °C 36.7 °F /  2.6 °C 29.9in /  1012.6hPa OSO 7.6mph /  12.2km/h 16.1mph /  25.9km/h 40% 0in /  0.0mm
15:34 61.2 °F /  16.2 °C 36.5 °F /  2.5 °C 29.9in /  1012.6hPa OSO 7.6mph /  12.2km/h 16.3mph /  26.2km/h 40% 0in /  0.0mm
15:39 61 °F /  16.1 °C 36.7 °F /  2.6 °C 29.9in /  1012.6hPa Oeste 7.6mph /  12.2km/h 16.1mph /  25.9km/h 40.2% 0in /  0.0mm
15:44 60.8 °F /  16 °C 37 °F /  2.8 °C 29.9in /  1012.6hPa OSO 8mph /  12.8km/h 16.8mph /  27km/h 41% 0in /  0.0mm
15:49 60.6 °F /  15.9 °C 36.5 °F /  2.5 °C 29.9in /  1012.6hPa OSO 8.1mph /  13km/h 17.3mph /  27.8km/h 40.5% 0in /  0.0mm
15:54 60.6 °F /  15.9 °C 36.7 °F /  2.6 °C 29.9in /  1012.6hPa OSO 9.2mph /  14.8km/h 18.4mph /  29.6km/h 40.9% 0in /  0.0mm
15:59 60.6 °F /  15.9 °C 36.9 °F /  2.7 °C 29.9in /  1012.5hPa OSO 9.7mph /  15.6km/h 18mph /  29km/h 41% 0in /  0.0mm
16:04 60.8 °F /  16 °C 36.9 °F /  2.7 °C 29.9in /  1012.5hPa Oeste 9.9mph /  15.9km/h 17.3mph /  27.8km/h 41% 0in /  0.0mm
16:09 60.8 °F /  16 °C 36.7 °F /  2.6 °C 29.9in /  1012.5hPa OSO 10mph /  16.1km/h 19.7mph /  31.7km/h 40.4% 0in /  0.0mm
16:14 61 °F /  16.1 °C 36.5 °F /  2.5 °C 29.9in /  1012.5hPa OSO 10mph /  16.1km/h 20mph /  32.2km/h 40% 0in /  0.0mm
16:19 61.2 °F /  16.2 °C 36.7 °F /  2.6 °C 29.9in /  1012.5hPa OSO 10mph /  16.1km/h 16.1mph /  25.9km/h 40% 0in /  0.0mm
16:24 61.3 °F /  16.3 °C 36.7 °F /  2.6 °C 29.9in /  1012.6hPa Oeste 9.1mph /  14.7km/h 16mph /  25.7km/h 40% 0in /  0.0mm
16:29 61.3 °F /  16.3 °C 36.9 °F /  2.7 °C 29.9in /  1012.6hPa Oeste 8.7mph /  14km/h 18.5mph /  29.8km/h 40% 0in /  0.0mm
16:34 61.5 °F /  16.4 °C 37 °F /  2.8 °C 29.9in /  1012.6hPa Oeste 7.8mph /  12.6km/h 19mph /  30.6km/h 40% 0in /  0.0mm
16:39 61.5 °F /  16.4 °C 36.9 °F /  2.7 °C 29.9in /  1012.6hPa OSO 7.4mph /  11.9km/h 16.8mph /  27km/h 39.8% 0in /  0.0mm
16:44 61.5 °F /  16.4 °C 36.3 °F /  2.4 °C 29.9in /  1012.3hPa OSO 8.6mph /  13.9km/h 19mph /  30.6km/h 39% 0in /  0.0mm
16:49 61.3 °F /  16.3 °C 36.1 °F /  2.3 °C 29.9in /  1012.3hPa OSO 9.2mph /  14.8km/h 19mph /  30.6km/h 39% 0in /  0.0mm
16:54 61.3 °F /  16.3 °C 36.3 °F /  2.4 °C 29.9in /  1012.3hPa Oeste 9.8mph /  15.7km/h 17.8mph /  28.6km/h 39.3% 0in /  0.0mm
16:59 61.2 °F /  16.2 °C 36.7 °F /  2.6 °C 29.9in /  1012.3hPa Oeste 10mph /  16.1km/h 18mph /  29km/h 40% 0in /  0.0mm
17:04 61.2 °F /  16.2 °C 36.3 °F /  2.4 °C 29.9in /  1012.3hPa OSO 8.3mph /  13.4km/h 14mph /  22.5km/h 39.4% 0in /  0.0mm
17:09 61.2 °F /  16.2 °C 36.5 °F /  2.5 °C 29.9in /  1012.3hPa Oeste 7.6mph /  12.2km/h 12mph /  19.3km/h 39.8% 0in /  0.0mm
17:14 61.2 °F /  16.2 °C 36 °F /  2.2 °C 29.9in /  1012.3hPa Oeste 5.6mph /  9km/h 12.5mph /  20.1km/h 39% 0in /  0.0mm
17:19 61 °F /  16.1 °C 35.2 °F /  1.8 °C 29.9in /  1012.3hPa OSO 4.7mph /  7.6km/h 13mph /  20.9km/h 38.1% 0in /  0.0mm
17:24 61 °F /  16.1 °C 35.6 °F /  2 °C 29.9in /  1012.4hPa SSO 5.7mph /  9.2km/h 13mph /  20.9km/h 38.6% 0in /  0.0mm
17:29 60.8 °F /  16 °C 35.6 °F /  2 °C 29.9in /  1012.4hPa SSO 6.2mph /  10km/h 9mph /  14.5km/h 38.9% 0in /  0.0mm
17:34 61 °F /  16.1 °C 36.1 °F /  2.3 °C 29.9in /  1012.4hPa SO 5.2mph /  8.3km/h 8.1mph /  13km/h 39.7% 0in /  0.0mm
17:39 60.8 °F /  16 °C 35.8 °F /  2.1 °C 29.9in /  1012.5hPa SO 4.7mph /  7.6km/h 8.1mph /  13km/h 39.2% 0in /  0.0mm
17:44 60.6 °F /  15.9 °C 36.5 °F /  2.5 °C 29.9in /  1012.5hPa SSO 3.6mph /  5.8km/h 8mph /  12.9km/h 40.5% 0in /  0.0mm
17:49 60.4 °F /  15.8 °C 35.8 °F /  2.1 °C 29.9in /  1012.5hPa SO 3.1mph /  5km/h 5mph /  8km/h 39.6% 0in /  0.0mm
17:54 60.3 °F /  15.7 °C 36.9 °F /  2.7 °C 29.9in /  1012.7hPa SSO 2.6mph /  4.2km/h 5.2mph /  8.4km/h 41.8% 0in /  0.0mm
17:59 60.1 °F /  15.6 °C 38.5 °F /  3.6 °C 29.9in /  1012.7hPa Sur 2.4mph /  3.9km/h 5.9mph /  9.5km/h 44.7% 0in /  0.0mm
18:04 59.7 °F /  15.4 °C 38.3 °F /  3.5 °C 29.9in /  1012.7hPa SSO 3.2mph /  5.2km/h 6mph /  9.7km/h 44.9% 0in /  0.0mm
18:09 59.7 °F /  15.4 °C 38.5 °F /  3.6 °C 29.9in /  1013.0hPa Sur 3.6mph /  5.8km/h 6mph /  9.7km/h 45.3% 0in /  0.0mm
18:14 59.5 °F /  15.3 °C 37.6 °F /  3.1 °C 29.9in /  1013.0hPa SO 2.5mph /  4km/h 9.2mph /  14.8km/h 44.2% 0in /  0.0mm
18:19 59.4 °F /  15.2 °C 36.7 °F /  2.6 °C 29.9in /  1013.0hPa SSO 2mph /  3.2km/h 10.4mph /  16.7km/h 42.9% 0in /  0.0mm
18:24 59.4 °F /  15.2 °C 38.3 °F /  3.5 °C 29.9in /  1013.1hPa SSE 4.3mph /  6.9km/h 10mph /  16.1km/h 45.7% 0in /  0.0mm
18:29 59.2 °F /  15.1 °C 38.5 °F /  3.6 °C 29.9in /  1013.1hPa SSO 5.4mph /  8.7km/h 7mph /  11.3km/h 46.1% 0in /  0.0mm
18:34 58.8 °F /  14.9 °C 38.7 °F /  3.7 °C 29.9in /  1013.1hPa SO 4.2mph /  6.7km/h 5mph /  8km/h 46.9% 0in /  0.0mm
18:39 58.6 °F /  14.8 °C 38.5 °F /  3.6 °C 29.9in /  1013.3hPa Sur 3.6mph /  5.8km/h 5.9mph /  9.5km/h 47% 0in /  0.0mm
18:44 58.6 °F /  14.8 °C 38.5 °F /  3.6 °C 29.9in /  1013.3hPa SSO 3.6mph /  5.8km/h 6mph /  9.7km/h 47% 0in /  0.0mm
18:49 58.5 °F /  14.7 °C 38.7 °F /  3.7 °C 29.9in /  1013.3hPa NO 3.6mph /  5.8km/h 6mph /  9.7km/h 47.7% 0in /  0.0mm
18:54 57.9 °F /  14.4 °C 38.3 °F /  3.5 °C 29.9in /  1013.4hPa NO 2.5mph /  4km/h 5mph /  8km/h 47.7% 0in /  0.0mm
18:59 57.7 °F /  14.3 °C 38.5 °F /  3.6 °C 29.9in /  1013.4hPa NO 2mph /  3.2km/h 4.6mph /  7.4km/h 48.4% 0in /  0.0mm
19:04 57.6 °F /  14.2 °C 38.3 °F /  3.5 °C 29.9in /  1013.4hPa NO 1.6mph /  2.5km/h 5mph /  8km/h 48.6% 0in /  0.0mm
19:09 57.4 °F /  14.1 °C 37 °F /  2.8 °C 29.9in /  1013.6hPa Oeste 1.4mph /  2.2km/h 5.9mph /  9.5km/h 46.6% 0in /  0.0mm
19:14 57.6 °F /  14.2 °C 36.9 °F /  2.7 °C 29.9in /  1013.6hPa Oeste 2.1mph /  3.3km/h 6.2mph /  10km/h 45.8% 0in /  0.0mm
19:19 57.7 °F /  14.3 °C 36.5 °F /  2.5 °C 29.9in /  1013.6hPa OSO 2.4mph /  3.9km/h 6.9mph /  11.1km/h 45.2% 0in /  0.0mm
19:24 57.6 °F /  14.2 °C 36.9 °F /  2.7 °C 29.9in /  1013.8hPa OSO 3.2mph /  5.2km/h 7.4mph /  11.9km/h 46.1% 0in /  0.0mm
19:29 57.4 °F /  14.1 °C 36.9 °F /  2.7 °C 29.9in /  1013.8hPa ONO 3.6mph /  5.8km/h 11.8mph /  19km/h 46% 0in /  0.0mm
19:34 57.4 °F /  14.1 °C 36.3 °F /  2.4 °C 29.9in /  1013.8hPa ONO 4.8mph /  7.7km/h 12mph /  19.3km/h 45.1% 0in /  0.0mm
19:39 57.4 °F /  14.1 °C 36.1 °F /  2.3 °C 29.9in /  1013.8hPa Oeste 5.4mph /  8.7km/h 15mph /  24.1km/h 45% 0in /  0.0mm
19:44 57.4 °F /  14.1 °C 36.1 °F /  2.3 °C 29.9in /  1013.7hPa Oeste 6.4mph /  10.3km/h 15mph /  24.1km/h 45% 0in /  0.0mm
19:49 57 °F /  13.9 °C 36.3 °F /  2.4 °C 29.9in /  1013.7hPa Oeste 6.9mph /  11.1km/h 13.8mph /  22.2km/h 45.8% 0in /  0.0mm
19:54 57 °F /  13.9 °C 36.3 °F /  2.4 °C 29.9in /  1013.8hPa Oeste 7.4mph /  11.9km/h 16.1mph /  25.9km/h 45.8% 0in /  0.0mm
19:59 57.6 °F /  14.2 °C 36 °F /  2.2 °C 29.9in /  1013.8hPa Oeste 7.6mph /  12.2km/h 16mph /  25.7km/h 44.6% 0in /  0.0mm
20:04 57.6 °F /  14.2 °C 36.1 °F /  2.3 °C 29.9in /  1013.8hPa Oeste 7.5mph /  12km/h 14mph /  22.5km/h 44.6% 0in /  0.0mm
20:09 57.6 °F /  14.2 °C 36 °F /  2.2 °C 29.9in /  1013.8hPa Oeste 7.4mph /  11.9km/h 15.9mph /  25.6km/h 44.4% 0in /  0.0mm
20:14 57.9 °F /  14.4 °C 36 °F /  2.2 °C 29.9in /  1013.8hPa ONO 8.1mph /  13.1km/h 16.1mph /  25.9km/h 43.5% 0in /  0.0mm
20:19 58.3 °F /  14.6 °C 35.8 °F /  2.1 °C 29.9in /  1013.8hPa Oeste 8.5mph /  13.7km/h 16mph /  25.7km/h 43% 0in /  0.0mm
20:24 58.3 °F /  14.6 °C 36 °F /  2.2 °C 29.9in /  1013.8hPa Oeste 8.6mph /  13.9km/h 15mph /  24.1km/h 43.1% 0in /  0.0mm
20:29 57.9 °F /  14.4 °C 36.1 °F /  2.3 °C 29.9in /  1013.8hPa ONO 8.7mph /  14km/h 15mph /  24.1km/h 44% 0in /  0.0mm
20:34 57.9 °F /  14.4 °C 36.1 °F /  2.3 °C 29.9in /  1013.8hPa ONO 8.7mph /  14km/h 15mph /  24.1km/h 44% 0in /  0.0mm
20:39 57.7 °F /  14.3 °C 36.1 °F /  2.3 °C 29.9in /  1013.8hPa ONO 8.7mph /  14km/h 15.2mph /  24.5km/h 44.4% 0in /  0.0mm
20:44 57.4 °F /  14.1 °C 36.1 °F /  2.3 °C 29.9in /  1013.8hPa ONO 8.3mph /  13.3km/h 15mph /  24.1km/h 45% 0in /  0.0mm
20:49 57 °F /  13.9 °C 36.1 °F /  2.3 °C 29.9in /  1013.8hPa ONO 8.1mph /  13km/h 15mph /  24.1km/h 45.6% 0in /  0.0mm
20:54 57 °F /  13.9 °C 36.3 °F /  2.4 °C 29.9in /  1014.0hPa ONO 7mph /  11.2km/h 13mph /  20.9km/h 46% 0in /  0.0mm
20:59 56.7 °F /  13.7 °C 36.3 °F /  2.4 °C 29.9in /  1014.0hPa ONO 6.4mph /  10.3km/h 9mph /  14.5km/h 46.3% 0in /  0.0mm
21:04 56.5 °F /  13.6 °C 36.5 °F /  2.5 °C 29.9in /  1014.0hPa ONO 4.9mph /  7.9km/h 7.4mph /  11.9km/h 47% 0in /  0.0mm
21:09 56.1 °F /  13.4 °C 36.5 °F /  2.5 °C 29.9in /  1014.0hPa OSO 4.3mph /  6.9km/h 7mph /  11.3km/h 47.4% 0in /  0.0mm
21:14 55.9 °F /  13.3 °C 36.5 °F /  2.5 °C 29.9in /  1014.0hPa SSO 3.9mph /  6.2km/h 7mph /  11.3km/h 48% 0in /  0.0mm
21:19 55.6 °F /  13.1 °C 37 °F /  2.8 °C 29.9in /  1014.0hPa Sur 3.6mph /  5.8km/h 6mph /  9.7km/h 49.6% 0in /  0.0mm
21:24 55 °F /  12.8 °C 37.4 °F /  3 °C 29.9in /  1014.1hPa SSO 3.9mph /  6.2km/h 8.5mph /  13.7km/h 51.5% 0in /  0.0mm
21:29 54.5 °F /  12.5 °C 37.2 °F /  2.9 °C 29.9in /  1014.1hPa SSO 4mph /  6.5km/h 9mph /  14.5km/h 52% 0in /  0.0mm
21:34 54.3 °F /  12.4 °C 37.2 °F /  2.9 °C 29.9in /  1014.1hPa SO 4.5mph /  7.2km/h 8mph /  12.9km/h 52.4% 0in /  0.0mm
21:39 54.3 °F /  12.4 °C 37.4 °F /  3 °C 29.9in /  1014.1hPa SO 4.7mph /  7.6km/h 7mph /  11.3km/h 52.8% 0in /  0.0mm
21:44 54.3 °F /  12.4 °C 37.6 °F /  3.1 °C 29.9in /  1014.1hPa SO 4mph /  6.4km/h 7mph /  11.3km/h 53% 0in /  0.0mm
21:49 54.3 °F /  12.4 °C 37.6 °F /  3.1 °C 29.9in /  1014.1hPa OSO 3.6mph /  5.8km/h 6mph /  9.7km/h 53% 0in /  0.0mm
21:54 54.1 °F /  12.3 °C 37.4 °F /  3 °C 29.9in /  1014.1hPa OSO 3.2mph /  5.2km/h 5mph /  8km/h 53% 0in /  0.0mm
21:59 54 °F /  12.2 °C 37.6 °F /  3.1 °C 29.9in /  1014.0hPa OSO 3.1mph /  5km/h 5.2mph /  8.4km/h 53.7% 0in /  0.0mm
22:04 53.8 °F /  12.1 °C 37.6 °F /  3.1 °C 29.9in /  1014.0hPa OSO 3mph /  4.8km/h 5mph /  8km/h 54.5% 0in /  0.0mm
22:09 53.2 °F /  11.8 °C 37.8 °F /  3.2 °C 29.9in /  1014.1hPa Oeste 2.9mph /  4.7km/h 4.6mph /  7.4km/h 55.3% 0in /  0.0mm
22:14 53.1 °F /  11.7 °C 37.8 °F /  3.2 °C 29.9in /  1014.1hPa ONO 2.1mph /  3.4km/h 5mph /  8km/h 56% 0in /  0.0mm
22:19 52.9 °F /  11.6 °C 37.9 °F /  3.3 °C 29.9in /  1014.1hPa ONO 1.8mph /  2.9km/h 2.4mph /  3.9km/h 56.7% 0in /  0.0mm
22:24 52.5 °F /  11.4 °C 37.8 °F /  3.2 °C 30in /  1014.5hPa ONO 0.6mph /  1km/h 2.3mph /  3.7km/h 57% 0in /  0.0mm
22:29 52.3 °F /  11.3 °C 38.1 °F /  3.4 °C 30in /  1014.5hPa Calm   2.3mph /  3.7km/h 57.9% 0in /  0.0mm
22:34 52.2 °F /  11.2 °C 37.9 °F /  3.3 °C 30in /  1014.5hPa Calm   3.6mph /  5.8km/h 58% 0in /  0.0mm
22:39 52.2 °F /  11.2 °C 37.9 °F /  3.3 °C 30in /  1014.7hPa Calm   5.2mph /  8.4km/h 58.3% 0in /  0.0mm
22:44 52.2 °F /  11.2 °C 38.1 °F /  3.4 °C 30in /  1014.7hPa SSE 1.9mph /  3.1km/h 5.8mph /  9.3km/h 59% 0in /  0.0mm
22:49 52 °F /  11.1 °C 38.1 °F /  3.4 °C 30in /  1014.7hPa SSE 2.9mph /  4.7km/h 6mph /  9.7km/h 59% 0in /  0.0mm
22:54 52 °F /  11.1 °C 38.3 °F /  3.5 °C 30in /  1014.7hPa SSE 3.4mph /  5.4km/h 7.4mph /  11.9km/h 59.6% 0in /  0.0mm
22:59 51.6 °F /  10.9 °C 38.3 °F /  3.5 °C 30in /  1014.4hPa SE 3.6mph /  5.8km/h 7.4mph /  11.9km/h 60% 0in /  0.0mm
23:04 51.4 °F /  10.8 °C 38.3 °F /  3.5 °C 30in /  1014.4hPa ESE 4.3mph /  7km/h 8.1mph /  13km/h 60.6% 0in /  0.0mm
23:09 50.7 °F /  10.4 °C 38.1 °F /  3.4 °C 30in /  1014.4hPa SE 4.7mph /  7.6km/h 8.1mph /  13km/h 62.1% 0in /  0.0mm
23:14 50.2 °F /  10.1 °C 38.1 °F /  3.4 °C 30in /  1014.4hPa SE 5.2mph /  8.3km/h 8.1mph /  13km/h 63% 0in /  0.0mm
23:19 50.4 °F /  10.2 °C 37.9 °F /  3.3 °C 30in /  1014.4hPa SSE 5.4mph /  8.7km/h 10.2mph /  16.4km/h 62.3% 0in /  0.0mm
23:24 50.7 °F /  10.4 °C 37.6 °F /  3.1 °C 30in /  1014.4hPa SSE 6mph /  9.6km/h 10.4mph /  16.7km/h 60.7% 0in /  0.0mm
23:29 51.3 °F /  10.7 °C 37.6 °F /  3.1 °C 30in /  1014.4hPa SE 6.2mph /  10km/h 10mph /  16.1km/h 59.4% 0in /  0.0mm
23:34 51.4 °F /  10.8 °C 37.4 °F /  3 °C 30in /  1014.4hPa SE 5.7mph /  9.1km/h 9mph /  14.5km/h 58.9% 0in /  0.0mm
23:39 51.4 °F /  10.8 °C 37.6 °F /  3.1 °C 30in /  1014.4hPa SSE 5.4mph /  8.7km/h 7mph /  11.3km/h 59% 0in /  0.0mm
23:44 51.3 °F /  10.7 °C 37.4 °F /  3 °C 30in /  1014.2hPa SSE 4.7mph /  7.5km/h 8.1mph /  13km/h 59% 0in /  0.0mm
23:49 51.1 °F /  10.6 °C 37.6 °F /  3.1 °C 30in /  1014.2hPa SSE 4.3mph /  6.9km/h 9.2mph /  14.8km/h 59.9% 0in /  0.0mm
23:54 50.7 °F /  10.4 °C 37.6 °F /  3.1 °C 30in /  1014.2hPa SSE 5.4mph /  8.7km/h 9mph /  14.5km/h 60.5% 0in /  0.0mm
23:59 50.5 °F /  10.3 °C 37.6 °F /  3.1 °C 29.9in /  1014.1hPa SSE 5.9mph /  9.5km/h 9.2mph /  14.8km/h 61% 0in /  0.0mm
Murcia-Puente Tocinos, Espa?a
Compliments of Weather Underground - 3.25 mb

La estación de MeteoMurcia.com, publica sus datos en los siguientes proyectos:

Weather Underground PWS IMURCIAP2 Meteoclimatic www.awekas.at

W3Counter
Web Analytics